sensor_id;sensor_type;location;lat;lon;timestamp;temperature;humidity
54192;DHT22;40101;53.002;6.488;2023-03-14T00:00:48;9.40;99.90
54192;DHT22;40101;53.002;6.488;2023-03-14T00:03:17;9.40;99.90
54192;DHT22;40101;53.002;6.488;2023-03-14T00:05:42;9.50;99.90
54192;DHT22;40101;53.002;6.488;2023-03-14T00:08:08;9.50;99.90
54192;DHT22;40101;53.002;6.488;2023-03-14T00:10:38;9.60;99.90
54192;DHT22;40101;53.002;6.488;2023-03-14T00:13:07;9.60;99.90
54192;DHT22;40101;53.002;6.488;2023-03-14T00:15:34;9.70;99.90
54192;DHT22;40101;53.002;6.488;2023-03-14T00:18:00;9.70;99.90
54192;DHT22;40101;53.002;6.488;2023-03-14T00:20:26;9.80;99.90
54192;DHT22;40101;53.002;6.488;2023-03-14T00:22:51;9.80;99.90
54192;DHT22;40101;53.002;6.488;2023-03-14T00:25:17;9.80;99.90
54192;DHT22;40101;53.002;6.488;2023-03-14T00:28:08;9.90;99.90
54192;DHT22;40101;53.002;6.488;2023-03-14T00:30:37;9.90;99.90
54192;DHT22;40101;53.002;6.488;2023-03-14T00:33:02;10.00;99.90
54192;DHT22;40101;53.002;6.488;2023-03-14T00:35:34;10.10;99.90
54192;DHT22;40101;53.002;6.488;2023-03-14T00:38:00;10.10;99.90
54192;DHT22;40101;53.002;6.488;2023-03-14T00:40:33;10.20;99.90
54192;DHT22;40101;53.002;6.488;2023-03-14T00:42:58;10.20;99.90
54192;DHT22;40101;53.002;6.488;2023-03-14T00:45:27;10.20;99.90
54192;DHT22;40101;53.002;6.488;2023-03-14T00:47:52;10.20;99.90
54192;DHT22;40101;53.002;6.488;2023-03-14T00:50:18;10.30;99.90
54192;DHT22;40101;53.002;6.488;2023-03-14T00:52:59;10.30;99.90
54192;DHT22;40101;53.002;6.488;2023-03-14T00:56:09;10.20;99.90
54192;DHT22;40101;53.002;6.488;2023-03-14T00:58:46;10.20;99.90
54192;DHT22;40101;53.002;6.488;2023-03-14T01:01:32;10.20;99.90
54192;DHT22;40101;53.002;6.488;2023-03-14T01:07:23;10.10;99.90
54192;DHT22;40101;53.002;6.488;2023-03-14T01:10:03;10.20;99.90
54192;DHT22;40101;53.002;6.488;2023-03-14T01:12:48;10.20;99.90
54192;DHT22;40101;53.002;6.488;2023-03-14T01:15:16;10.30;99.90
54192;DHT22;40101;53.002;6.488;2023-03-14T01:17:53;10.30;99.90
54192;DHT22;40101;53.002;6.488;2023-03-14T01:20:37;10.40;99.90
54192;DHT22;40101;53.002;6.488;2023-03-14T01:23:06;10.30;99.90
54192;DHT22;40101;53.002;6.488;2023-03-14T01:25:41;10.30;99.90
54192;DHT22;40101;53.002;6.488;2023-03-14T01:28:06;10.30;99.90
54192;DHT22;40101;53.002;6.488;2023-03-14T01:30:32;10.30;99.90
54192;DHT22;40101;53.002;6.488;2023-03-14T01:33:05;10.30;99.90
54192;DHT22;40101;53.002;6.488;2023-03-14T01:35:37;10.30;99.90
54192;DHT22;40101;53.002;6.488;2023-03-14T01:38:03;10.30;99.90
54192;DHT22;40101;53.002;6.488;2023-03-14T01:40:40;10.40;99.90
54192;DHT22;40101;53.002;6.488;2023-03-14T01:43:17;10.40;99.90
54192;DHT22;40101;53.002;6.488;2023-03-14T01:56:13;10.20;99.90
54192;DHT22;40101;53.002;6.488;2023-03-14T01:58:52;10.20;99.90
54192;DHT22;40101;53.002;6.488;2023-03-14T02:01:21;10.20;99.90
54192;DHT22;40101;53.002;6.488;2023-03-14T02:03:56;10.20;99.90
54192;DHT22;40101;53.002;6.488;2023-03-14T02:10:08;10.10;99.90
54192;DHT22;40101;53.002;6.488;2023-03-14T02:12:49;10.10;99.90
54192;DHT22;40101;53.002;6.488;2023-03-14T02:15:31;10.10;99.90
54192;DHT22;40101;53.002;6.488;2023-03-14T02:18:26;10.10;99.90
54192;DHT22;40101;53.002;6.488;2023-03-14T02:27:45;10.00;99.90
54192;DHT22;40101;53.002;6.488;2023-03-14T02:30:31;10.00;99.90
54192;DHT22;40101;53.002;6.488;2023-03-14T02:33:07;10.00;99.90
54192;DHT22;40101;53.002;6.488;2023-03-14T02:35:46;10.00;99.90
54192;DHT22;40101;53.002;6.488;2023-03-14T02:38:50;10.00;99.90
54192;DHT22;40101;53.002;6.488;2023-03-14T02:41:43;10.00;99.90
54192;DHT22;40101;53.002;6.488;2023-03-14T02:44:25;9.90;99.90
54192;DHT22;40101;53.002;6.488;2023-03-14T02:47:36;9.90;99.90
54192;DHT22;40101;53.002;6.488;2023-03-14T02:50:50;9.90;99.90
54192;DHT22;40101;53.002;6.488;2023-03-14T02:53:27;9.90;99.90
54192;DHT22;40101;53.002;6.488;2023-03-14T02:56:12;9.90;99.90
54192;DHT22;40101;53.002;6.488;2023-03-14T02:59:14;9.90;99.90
54192;DHT22;40101;53.002;6.488;2023-03-14T03:02:13;9.90;99.90
54192;DHT22;40101;53.002;6.488;2023-03-14T03:04:41;9.80;99.90
54192;DHT22;40101;53.002;6.488;2023-03-14T03:07:10;9.80;99.90
54192;DHT22;40101;53.002;6.488;2023-03-14T03:09:59;9.80;99.90
54192;DHT22;40101;53.002;6.488;2023-03-14T03:12:48;9.70;99.90
54192;DHT22;40101;53.002;6.488;2023-03-14T03:15:36;9.60;99.90
54192;DHT22;40101;53.002;6.488;2023-03-14T03:21:29;9.50;99.90
54192;DHT22;40101;53.002;6.488;2023-03-14T03:31:44;9.40;99.90
54192;DHT22;40101;53.002;6.488;2023-03-14T03:34:16;9.30;99.90
54192;DHT22;40101;53.002;6.488;2023-03-14T03:36:45;9.30;99.90
54192;DHT22;40101;53.002;6.488;2023-03-14T03:39:11;9.30;99.90
54192;DHT22;40101;53.002;6.488;2023-03-14T03:41:42;9.30;99.90
54192;DHT22;40101;53.002;6.488;2023-03-14T03:44:08;9.30;99.90
54192;DHT22;40101;53.002;6.488;2023-03-14T03:46:37;9.30;99.90
54192;DHT22;40101;53.002;6.488;2023-03-14T03:49:34;9.30;99.90
54192;DHT22;40101;53.002;6.488;2023-03-14T04:49:08;9.00;99.90
54192;DHT22;40101;53.002;6.488;2023-03-14T04:54:43;8.90;99.90
54192;DHT22;40101;53.002;6.488;2023-03-14T04:57:21;8.90;99.90
54192;DHT22;40101;53.002;6.488;2023-03-14T05:07:51;8.90;99.90
54192;DHT22;40101;53.002;6.488;2023-03-14T05:36:39;8.90;99.90
54192;DHT22;40101;53.002;6.488;2023-03-14T05:39:19;8.90;99.90
54192;DHT22;40101;53.002;6.488;2023-03-14T05:45:00;8.80;99.90
54192;DHT22;40101;53.002;6.488;2023-03-14T05:59:08;8.80;99.90
54192;DHT22;40101;53.002;6.488;2023-03-14T06:01:37;8.70;99.90
54192;DHT22;40101;53.002;6.488;2023-03-14T06:04:03;8.70;99.90
54192;DHT22;40101;53.002;6.488;2023-03-14T06:09:23;8.80;99.90
54192;DHT22;40101;53.002;6.488;2023-03-14T06:19:42;8.80;99.90
54192;DHT22;40101;53.002;6.488;2023-03-14T06:25:00;8.80;99.90
54192;DHT22;40101;53.002;6.488;2023-03-14T06:27:25;8.80;99.90
54192;DHT22;40101;53.002;6.488;2023-03-14T06:29:51;8.80;99.90
54192;DHT22;40101;53.002;6.488;2023-03-14T06:32:17;8.90;99.90
54192;DHT22;40101;53.002;6.488;2023-03-14T06:34:43;8.80;99.90
54192;DHT22;40101;53.002;6.488;2023-03-14T06:37:09;8.80;99.90
54192;DHT22;40101;53.002;6.488;2023-03-14T06:39:35;8.80;99.90
54192;DHT22;40101;53.002;6.488;2023-03-14T06:42:00;8.80;99.90
54192;DHT22;40101;53.002;6.488;2023-03-14T06:44:38;8.80;99.90
54192;DHT22;40101;53.002;6.488;2023-03-14T11:45:48;8.50;99.90
54192;DHT22;40101;53.002;6.488;2023-03-14T13:12:28;9.60;99.80
54192;DHT22;40101;53.002;6.488;2023-03-14T13:15:48;9.20;98.00
54192;DHT22;40101;53.002;6.488;2023-03-14T13:19:24;8.80;99.40
54192;DHT22;40101;53.002;6.488;2023-03-14T13:27:33;8.50;99.90
54192;DHT22;40101;53.002;6.488;2023-03-14T13:31:22;8.70;99.90
54192;DHT22;40101;53.002;6.488;2023-03-14T13:34:42;8.80;99.60
54192;DHT22;40101;53.002;6.488;2023-03-14T13:45:26;8.80;99.90
54192;DHT22;40101;53.002;6.488;2023-03-14T13:48:00;8.80;99.30
54192;DHT22;40101;53.002;6.488;2023-03-14T13:50:26;8.90;99.90
54192;DHT22;40101;53.002;6.488;2023-03-14T13:56:36;9.00;99.90
54192;DHT22;40101;53.002;6.488;2023-03-14T14:05:40;8.40;99.90
54192;DHT22;40101;53.002;6.488;2023-03-14T14:08:12;8.10;99.90
54192;DHT22;40101;53.002;6.488;2023-03-14T14:10:38;8.00;98.80
54192;DHT22;40101;53.002;6.488;2023-03-14T14:13:08;7.90;99.90
54192;DHT22;40101;53.002;6.488;2023-03-14T14:15:41;7.80;99.90
54192;DHT22;40101;53.002;6.488;2023-03-14T14:18:10;7.90;98.20
54192;DHT22;40101;53.002;6.488;2023-03-14T14:20:42;8.00;98.80
54192;DHT22;40101;53.002;6.488;2023-03-14T14:23:15;8.10;99.70
54192;DHT22;40101;53.002;6.488;2023-03-14T14:25:43;8.20;99.90
54192;DHT22;40101;53.002;6.488;2023-03-14T14:31:01;8.50;99.60
54192;DHT22;40101;53.002;6.488;2023-03-14T14:33:27;8.60;99.90
54192;DHT22;40101;53.002;6.488;2023-03-14T14:35:57;8.50;99.90
54192;DHT22;40101;53.002;6.488;2023-03-14T14:38:26;8.50;99.90
54192;DHT22;40101;53.002;6.488;2023-03-14T14:40:59;8.40;99.90
54192;DHT22;40101;53.002;6.488;2023-03-14T14:43:28;8.30;99.90
54192;DHT22;40101;53.002;6.488;2023-03-14T14:45:55;8.20;99.90
54192;DHT22;40101;53.002;6.488;2023-03-14T14:48:25;8.20;99.90
54192;DHT22;40101;53.002;6.488;2023-03-14T14:53:28;8.60;99.90
54192;DHT22;40101;53.002;6.488;2023-03-14T14:55:57;8.70;99.90
54192;DHT22;40101;53.002;6.488;2023-03-14T14:58:36;8.90;99.90
54192;DHT22;40101;53.002;6.488;2023-03-14T15:01:07;9.10;99.90
54192;DHT22;40101;53.002;6.488;2023-03-14T15:03:34;9.20;99.90
54192;DHT22;40101;53.002;6.488;2023-03-14T15:06:01;9.40;99.90
54192;DHT22;40101;53.002;6.488;2023-03-14T15:08:28;9.40;99.90
54192;DHT22;40101;53.002;6.488;2023-03-14T15:10:54;9.20;99.90
54192;DHT22;40101;53.002;6.488;2023-03-14T15:13:20;9.10;99.90
54192;DHT22;40101;53.002;6.488;2023-03-14T15:15:46;8.90;99.90
54192;DHT22;40101;53.002;6.488;2023-03-14T15:18:14;8.80;99.90
54192;DHT22;40101;53.002;6.488;2023-03-14T15:20:41;8.70;99.90
54192;DHT22;40101;53.002;6.488;2023-03-14T15:23:16;8.60;99.90
54192;DHT22;40101;53.002;6.488;2023-03-14T15:25:42;8.40;99.90
54192;DHT22;40101;53.002;6.488;2023-03-14T15:28:23;8.30;99.90
54192;DHT22;40101;53.002;6.488;2023-03-14T15:30:51;8.30;99.90
54192;DHT22;40101;53.002;6.488;2023-03-14T15:33:18;8.20;99.90
54192;DHT22;40101;53.002;6.488;2023-03-14T15:35:44;8.20;99.90
54192;DHT22;40101;53.002;6.488;2023-03-14T15:38:14;8.10;99.90
54192;DHT22;40101;53.002;6.488;2023-03-14T15:40:41;8.10;99.90
54192;DHT22;40101;53.002;6.488;2023-03-14T15:43:07;8.00;99.90
54192;DHT22;40101;53.002;6.488;2023-03-14T15:45:33;8.00;99.90
54192;DHT22;40101;53.002;6.488;2023-03-14T15:47:59;8.00;99.90
54192;DHT22;40101;53.002;6.488;2023-03-14T15:50:24;7.90;99.90
54192;DHT22;40101;53.002;6.488;2023-03-14T15:52:51;7.90;99.90
54192;DHT22;40101;53.002;6.488;2023-03-14T15:55:17;7.90;99.90
54192;DHT22;40101;53.002;6.488;2023-03-14T15:57:43;7.80;99.90
54192;DHT22;40101;53.002;6.488;2023-03-14T16:00:15;7.60;99.90
54192;DHT22;40101;53.002;6.488;2023-03-14T16:02:43;7.30;99.90
54192;DHT22;40101;53.002;6.488;2023-03-14T16:05:09;7.10;99.90
54192;DHT22;40101;53.002;6.488;2023-03-14T16:07:37;6.90;99.90
54192;DHT22;40101;53.002;6.488;2023-03-14T16:10:04;6.70;99.90
54192;DHT22;40101;53.002;6.488;2023-03-14T16:12:31;6.60;99.90
54192;DHT22;40101;53.002;6.488;2023-03-14T16:14:58;6.50;99.90
54192;DHT22;40101;53.002;6.488;2023-03-14T16:17:24;6.40;99.90
54192;DHT22;40101;53.002;6.488;2023-03-14T16:19:50;6.40;99.90
54192;DHT22;40101;53.002;6.488;2023-03-14T16:22:16;6.30;99.90
54192;DHT22;40101;53.002;6.488;2023-03-14T16:24:42;6.30;99.90
54192;DHT22;40101;53.002;6.488;2023-03-14T16:27:07;6.20;99.90
54192;DHT22;40101;53.002;6.488;2023-03-14T16:29:33;6.00;99.90
54192;DHT22;40101;53.002;6.488;2023-03-14T16:31:59;5.90;99.90
54192;DHT22;40101;53.002;6.488;2023-03-14T16:34:25;5.70;99.90
54192;DHT22;40101;53.002;6.488;2023-03-14T16:36:51;5.60;99.90
54192;DHT22;40101;53.002;6.488;2023-03-14T16:39:17;5.50;99.90
54192;DHT22;40101;53.002;6.488;2023-03-14T16:41:43;5.40;99.90
54192;DHT22;40101;53.002;6.488;2023-03-14T16:44:09;5.50;99.90
54192;DHT22;40101;53.002;6.488;2023-03-14T16:46:35;5.50;99.90
54192;DHT22;40101;53.002;6.488;2023-03-14T16:49:01;5.60;99.90
54192;DHT22;40101;53.002;6.488;2023-03-14T16:51:27;5.60;99.90
54192;DHT22;40101;53.002;6.488;2023-03-14T16:53:53;5.80;99.90
54192;DHT22;40101;53.002;6.488;2023-03-14T16:56:19;5.70;99.90
54192;DHT22;40101;53.002;6.488;2023-03-14T16:58:45;5.70;99.90
54192;DHT22;40101;53.002;6.488;2023-03-14T17:01:13;5.70;99.90
54192;DHT22;40101;53.002;6.488;2023-03-14T17:03:49;5.60;99.90
54192;DHT22;40101;53.002;6.488;2023-03-14T17:06:26;5.50;99.90
54192;DHT22;40101;53.002;6.488;2023-03-14T17:08:56;5.40;99.90
54192;DHT22;40101;53.002;6.488;2023-03-14T17:11:22;5.40;99.90
54192;DHT22;40101;53.002;6.488;2023-03-14T17:13:50;5.30;99.90
54192;DHT22;40101;53.002;6.488;2023-03-14T17:16:16;5.30;99.90
54192;DHT22;40101;53.002;6.488;2023-03-14T17:18:42;5.20;99.90
54192;DHT22;40101;53.002;6.488;2023-03-14T17:21:10;5.10;99.90
54192;DHT22;40101;53.002;6.488;2023-03-14T17:23:36;5.10;99.90
54192;DHT22;40101;53.002;6.488;2023-03-14T17:26:04;5.20;99.90
54192;DHT22;40101;53.002;6.488;2023-03-14T17:28:30;5.20;99.90
54192;DHT22;40101;53.002;6.488;2023-03-14T17:33:34;5.00;99.90
54192;DHT22;40101;53.002;6.488;2023-03-14T17:36:01;4.90;99.90
54192;DHT22;40101;53.002;6.488;2023-03-14T17:38:27;4.80;99.90
54192;DHT22;40101;53.002;6.488;2023-03-14T17:40:56;4.70;99.90
54192;DHT22;40101;53.002;6.488;2023-03-14T17:43:22;4.60;99.90
54192;DHT22;40101;53.002;6.488;2023-03-14T17:46:02;4.60;99.90
54192;DHT22;40101;53.002;6.488;2023-03-14T17:48:33;4.60;99.90
54192;DHT22;40101;53.002;6.488;2023-03-14T17:50:59;4.60;99.90
54192;DHT22;40101;53.002;6.488;2023-03-14T17:53:25;4.70;99.90
54192;DHT22;40101;53.002;6.488;2023-03-14T17:55:54;4.70;99.90
54192;DHT22;40101;53.002;6.488;2023-03-14T18:08:01;4.20;99.90
54192;DHT22;40101;53.002;6.488;2023-03-14T18:10:26;4.20;99.90
54192;DHT22;40101;53.002;6.488;2023-03-14T18:12:52;4.10;99.90
54192;DHT22;40101;53.002;6.488;2023-03-14T18:15:18;4.10;99.90
54192;DHT22;40101;53.002;6.488;2023-03-14T18:17:44;4.00;99.90
54192;DHT22;40101;53.002;6.488;2023-03-14T18:20:13;4.00;99.90
54192;DHT22;40101;53.002;6.488;2023-03-14T18:22:40;3.90;99.90
54192;DHT22;40101;53.002;6.488;2023-03-14T18:25:08;3.90;99.90
54192;DHT22;40101;53.002;6.488;2023-03-14T18:27:34;3.80;99.90
54192;DHT22;40101;53.002;6.488;2023-03-14T18:30:00;3.70;99.90
54192;DHT22;40101;53.002;6.488;2023-03-14T18:32:26;3.60;99.90
54192;DHT22;40101;53.002;6.488;2023-03-14T18:34:52;3.50;99.90
54192;DHT22;40101;53.002;6.488;2023-03-14T18:37:17;3.40;99.90
54192;DHT22;40101;53.002;6.488;2023-03-14T18:39:43;3.30;99.90
54192;DHT22;40101;53.002;6.488;2023-03-14T18:42:10;3.30;99.90
54192;DHT22;40101;53.002;6.488;2023-03-14T18:44:35;3.20;99.90
54192;DHT22;40101;53.002;6.488;2023-03-14T18:47:01;3.20;99.90
54192;DHT22;40101;53.002;6.488;2023-03-14T18:49:28;3.20;99.90
54192;DHT22;40101;53.002;6.488;2023-03-14T18:51:53;3.20;99.90
54192;DHT22;40101;53.002;6.488;2023-03-14T18:54:19;3.10;99.90
54192;DHT22;40101;53.002;6.488;2023-03-14T18:56:48;3.00;99.90
54192;DHT22;40101;53.002;6.488;2023-03-14T18:59:13;3.00;99.90
54192;DHT22;40101;53.002;6.488;2023-03-14T19:01:39;3.00;99.90
54192;DHT22;40101;53.002;6.488;2023-03-14T19:04:05;3.10;99.90
54192;DHT22;40101;53.002;6.488;2023-03-14T19:06:31;3.10;99.90
54192;DHT22;40101;53.002;6.488;2023-03-14T19:08:58;3.10;99.90
54192;DHT22;40101;53.002;6.488;2023-03-14T19:11:24;3.10;99.90
54192;DHT22;40101;53.002;6.488;2023-03-14T19:13:51;3.20;99.90
54192;DHT22;40101;53.002;6.488;2023-03-14T19:16:19;3.20;99.90
54192;DHT22;40101;53.002;6.488;2023-03-14T19:18:47;3.20;99.90
54192;DHT22;40101;53.002;6.488;2023-03-14T19:21:13;3.30;99.90
54192;DHT22;40101;53.002;6.488;2023-03-14T19:23:41;3.30;99.90
54192;DHT22;40101;53.002;6.488;2023-03-14T19:26:07;3.30;99.90
54192;DHT22;40101;53.002;6.488;2023-03-14T19:28:34;3.20;99.90
54192;DHT22;40101;53.002;6.488;2023-03-14T19:31:03;3.20;99.90
54192;DHT22;40101;53.002;6.488;2023-03-14T19:33:30;3.10;99.90
54192;DHT22;40101;53.002;6.488;2023-03-14T19:35:56;3.10;99.90
54192;DHT22;40101;53.002;6.488;2023-03-14T19:38:22;3.00;99.90
54192;DHT22;40101;53.002;6.488;2023-03-14T19:40:49;2.90;99.90
54192;DHT22;40101;53.002;6.488;2023-03-14T19:43:16;2.90;99.90
54192;DHT22;40101;53.002;6.488;2023-03-14T19:45:42;2.90;99.90
54192;DHT22;40101;53.002;6.488;2023-03-14T19:48:09;2.90;99.90
54192;DHT22;40101;53.002;6.488;2023-03-14T19:50:37;2.90;99.90
54192;DHT22;40101;53.002;6.488;2023-03-14T19:53:03;2.90;99.90
54192;DHT22;40101;53.002;6.488;2023-03-14T19:55:29;2.90;99.90
54192;DHT22;40101;53.002;6.488;2023-03-14T19:58:00;2.90;99.90
54192;DHT22;40101;53.002;6.488;2023-03-14T20:00:27;2.90;99.90
54192;DHT22;40101;53.002;6.488;2023-03-14T20:02:52;2.90;99.90
54192;DHT22;40101;53.002;6.488;2023-03-14T20:05:20;3.00;99.90
54192;DHT22;40101;53.002;6.488;2023-03-14T20:07:46;2.90;99.90
54192;DHT22;40101;53.002;6.488;2023-03-14T20:10:15;2.80;99.90
54192;DHT22;40101;53.002;6.488;2023-03-14T20:12:42;2.80;99.90
54192;DHT22;40101;53.002;6.488;2023-03-14T20:15:09;2.80;99.90
54192;DHT22;40101;53.002;6.488;2023-03-14T20:17:35;2.70;99.90
54192;DHT22;40101;53.002;6.488;2023-03-14T20:20:07;2.70;99.90
54192;DHT22;40101;53.002;6.488;2023-03-14T20:22:35;2.60;99.90
54192;DHT22;40101;53.002;6.488;2023-03-14T20:25:04;2.60;99.90
54192;DHT22;40101;53.002;6.488;2023-03-14T20:27:31;2.60;99.90
54192;DHT22;40101;53.002;6.488;2023-03-14T20:29:57;2.50;99.90
54192;DHT22;40101;53.002;6.488;2023-03-14T20:32:23;2.50;99.90
54192;DHT22;40101;53.002;6.488;2023-03-14T20:34:49;2.50;99.90
54192;DHT22;40101;53.002;6.488;2023-03-14T20:37:15;2.50;99.90
54192;DHT22;40101;53.002;6.488;2023-03-14T20:39:41;2.50;99.90
54192;DHT22;40101;53.002;6.488;2023-03-14T20:42:06;2.50;99.90
54192;DHT22;40101;53.002;6.488;2023-03-14T20:44:32;2.50;99.90
54192;DHT22;40101;53.002;6.488;2023-03-14T20:46:57;2.50;99.90
54192;DHT22;40101;53.002;6.488;2023-03-14T20:49:25;2.50;99.90
54192;DHT22;40101;53.002;6.488;2023-03-14T20:51:51;2.50;99.90
54192;DHT22;40101;53.002;6.488;2023-03-14T20:54:17;2.50;99.90
54192;DHT22;40101;53.002;6.488;2023-03-14T20:56:43;2.50;99.90
54192;DHT22;40101;53.002;6.488;2023-03-14T20:59:11;2.50;99.90
54192;DHT22;40101;53.002;6.488;2023-03-14T21:01:37;2.50;99.90
54192;DHT22;40101;53.002;6.488;2023-03-14T21:04:03;2.50;99.90
54192;DHT22;40101;53.002;6.488;2023-03-14T21:06:30;2.50;99.90
54192;DHT22;40101;53.002;6.488;2023-03-14T21:08:57;2.50;99.90
54192;DHT22;40101;53.002;6.488;2023-03-14T21:11:23;2.60;99.90
54192;DHT22;40101;53.002;6.488;2023-03-14T21:13:49;2.60;99.90
54192;DHT22;40101;53.002;6.488;2023-03-14T21:16:15;2.60;99.90
54192;DHT22;40101;53.002;6.488;2023-03-14T21:18:41;2.60;99.90
54192;DHT22;40101;53.002;6.488;2023-03-14T21:21:07;2.60;99.90
54192;DHT22;40101;53.002;6.488;2023-03-14T21:23:32;2.50;99.90
54192;DHT22;40101;53.002;6.488;2023-03-14T21:25:59;2.50;99.90
54192;DHT22;40101;53.002;6.488;2023-03-14T21:28:27;2.60;99.90
54192;DHT22;40101;53.002;6.488;2023-03-14T21:30:53;2.60;99.90
54192;DHT22;40101;53.002;6.488;2023-03-14T21:33:19;2.60;99.90
54192;DHT22;40101;53.002;6.488;2023-03-14T21:35:45;2.70;99.90
54192;DHT22;40101;53.002;6.488;2023-03-14T21:38:11;2.70;99.90
54192;DHT22;40101;53.002;6.488;2023-03-14T21:40:37;2.80;99.90
54192;DHT22;40101;53.002;6.488;2023-03-14T21:43:09;2.80;99.90
54192;DHT22;40101;53.002;6.488;2023-03-14T21:45:38;2.90;99.90
54192;DHT22;40101;53.002;6.488;2023-03-14T21:48:13;3.00;99.90
54192;DHT22;40101;53.002;6.488;2023-03-14T21:50:38;3.00;99.90
54192;DHT22;40101;53.002;6.488;2023-03-14T21:53:05;3.00;99.90
54192;DHT22;40101;53.002;6.488;2023-03-14T21:55:30;2.90;99.90
54192;DHT22;40101;53.002;6.488;2023-03-14T21:57:56;2.80;99.90
54192;DHT22;40101;53.002;6.488;2023-03-14T22:00:24;2.80;99.90
54192;DHT22;40101;53.002;6.488;2023-03-14T22:02:53;2.70;99.90
54192;DHT22;40101;53.002;6.488;2023-03-14T22:05:19;2.70;99.90
54192;DHT22;40101;53.002;6.488;2023-03-14T22:07:46;2.60;99.90
54192;DHT22;40101;53.002;6.488;2023-03-14T22:10:13;2.60;99.90
54192;DHT22;40101;53.002;6.488;2023-03-14T22:12:39;2.50;99.90
54192;DHT22;40101;53.002;6.488;2023-03-14T22:15:06;2.50;99.90
54192;DHT22;40101;53.002;6.488;2023-03-14T22:17:37;2.50;99.90
54192;DHT22;40101;53.002;6.488;2023-03-14T22:20:10;2.50;99.90
54192;DHT22;40101;53.002;6.488;2023-03-14T22:22:38;2.50;99.90
54192;DHT22;40101;53.002;6.488;2023-03-14T22:25:04;2.40;99.90
54192;DHT22;40101;53.002;6.488;2023-03-14T22:27:32;2.40;99.90
54192;DHT22;40101;53.002;6.488;2023-03-14T22:29:57;2.50;99.90
54192;DHT22;40101;53.002;6.488;2023-03-14T22:32:25;2.40;99.90
54192;DHT22;40101;53.002;6.488;2023-03-14T22:34:53;2.40;99.90
54192;DHT22;40101;53.002;6.488;2023-03-14T22:37:22;2.40;99.90
54192;DHT22;40101;53.002;6.488;2023-03-14T22:39:50;2.40;99.90
54192;DHT22;40101;53.002;6.488;2023-03-14T22:42:16;2.30;99.90
54192;DHT22;40101;53.002;6.488;2023-03-14T22:44:42;2.30;99.90
54192;DHT22;40101;53.002;6.488;2023-03-14T22:47:08;2.30;99.90
54192;DHT22;40101;53.002;6.488;2023-03-14T22:49:33;2.30;99.90
54192;DHT22;40101;53.002;6.488;2023-03-14T22:52:02;2.30;99.90
54192;DHT22;40101;53.002;6.488;2023-03-14T22:54:28;2.30;99.90
54192;DHT22;40101;53.002;6.488;2023-03-14T22:56:54;2.30;99.90
54192;DHT22;40101;53.002;6.488;2023-03-14T22:59:20;2.40;99.90
54192;DHT22;40101;53.002;6.488;2023-03-14T23:01:49;2.40;99.90
54192;DHT22;40101;53.002;6.488;2023-03-14T23:04:16;2.40;99.90
54192;DHT22;40101;53.002;6.488;2023-03-14T23:06:42;2.40;99.90
54192;DHT22;40101;53.002;6.488;2023-03-14T23:09:08;2.40;99.90
54192;DHT22;40101;53.002;6.488;2023-03-14T23:11:33;2.40;99.90
54192;DHT22;40101;53.002;6.488;2023-03-14T23:14:00;2.40;99.90
54192;DHT22;40101;53.002;6.488;2023-03-14T23:16:28;2.50;99.90
54192;DHT22;40101;53.002;6.488;2023-03-14T23:18:53;2.50;99.90
54192;DHT22;40101;53.002;6.488;2023-03-14T23:21:20;2.50;99.90
54192;DHT22;40101;53.002;6.488;2023-03-14T23:23:48;2.50;99.90
54192;DHT22;40101;53.002;6.488;2023-03-14T23:26:16;2.50;99.90
54192;DHT22;40101;53.002;6.488;2023-03-14T23:28:43;2.50;99.90
54192;DHT22;40101;53.002;6.488;2023-03-14T23:31:09;2.50;99.90
54192;DHT22;40101;53.002;6.488;2023-03-14T23:33:39;2.50;99.90
54192;DHT22;40101;53.002;6.488;2023-03-14T23:36:06;2.50;99.90
54192;DHT22;40101;53.002;6.488;2023-03-14T23:38:33;2.50;99.90
54192;DHT22;40101;53.002;6.488;2023-03-14T23:41:01;2.50;99.90
54192;DHT22;40101;53.002;6.488;2023-03-14T23:43:28;2.50;99.90
54192;DHT22;40101;53.002;6.488;2023-03-14T23:45:55;2.50;99.90
54192;DHT22;40101;53.002;6.488;2023-03-14T23:48:27;2.50;99.90
54192;DHT22;40101;53.002;6.488;2023-03-14T23:50:57;2.50;99.90
54192;DHT22;40101;53.002;6.488;2023-03-14T23:53:25;2.50;99.90
54192;DHT22;40101;53.002;6.488;2023-03-14T23:55:51;2.50;99.90
54192;DHT22;40101;53.002;6.488;2023-03-14T23:58:18;2.50;99.90
